createdAt,value
2018-07-19T00:03:07.296Z,98151.66
2018-07-19T00:05:35.791Z,98156.06
2018-07-19T00:08:04.280Z,98149.09
2018-07-19T00:10:33.089Z,98156.45
2018-07-19T00:13:01.525Z,98158.06
2018-07-19T00:15:30.020Z,98158.72
2018-07-19T00:17:58.898Z,98158.05
2018-07-19T00:20:27.946Z,98160.09
2018-07-19T00:22:56.641Z,98164.09
2018-07-19T00:25:25.096Z,98158.70
2018-07-19T00:27:53.777Z,98164.81
2018-07-19T00:30:22.320Z,98162.63
2018-07-19T00:32:50.848Z,98164.14
2018-07-19T00:35:19.327Z,98166.50
2018-07-19T00:37:47.777Z,98158.45
2018-07-19T00:40:16.239Z,98153.77
2018-07-19T00:42:44.714Z,98158.95
2018-07-19T00:45:13.297Z,98156.18
2018-07-19T00:47:41.901Z,98157.27
2018-07-19T00:50:10.424Z,98155.52
2018-07-19T00:52:38.861Z,98156.02
2018-07-19T00:55:07.979Z,98150.30
2018-07-19T00:57:36.471Z,98153.98
2018-07-19T01:00:05.019Z,98154.81
2018-07-19T01:02:33.484Z,98158.91
2018-07-19T01:05:01.932Z,98156.02
2018-07-19T01:07:30.413Z,98158.84
2018-07-19T01:09:58.860Z,98157.67
2018-07-19T01:12:27.367Z,98159.95
2018-07-19T01:14:55.799Z,98159.43
2018-07-19T01:17:24.222Z,98164.95
2018-07-19T01:19:52.724Z,98166.48
2018-07-19T01:22:21.327Z,98165.58
2018-07-19T01:24:49.796Z,98163.95
2018-07-19T01:27:18.253Z,98168.45
2018-07-19T01:29:46.778Z,98170.14
2018-07-19T01:32:15.240Z,98168.70
2018-07-19T01:34:43.767Z,98163.09
2018-07-19T01:37:12.457Z,98170.00
2018-07-19T01:39:40.944Z,98170.76
2018-07-19T01:42:41.743Z,98168.31
2018-07-19T01:45:11.019Z,98172.05
2018-07-19T01:47:39.959Z,98173.19
2018-07-19T01:50:09.528Z,98175.48
2018-07-19T01:52:38.182Z,98175.09
2018-07-19T01:55:07.278Z,98165.80
2018-07-19T01:57:35.699Z,98171.91
2018-07-19T02:00:05.085Z,98176.81
2018-07-19T02:02:33.584Z,98178.95
2018-07-19T02:05:02.064Z,98181.42
2018-07-19T02:07:30.560Z,98178.21
2018-07-19T02:09:59.212Z,98179.73
2018-07-19T02:12:27.696Z,98176.43
2018-07-19T02:14:56.131Z,98182.91
2018-07-19T02:17:24.583Z,98182.38
2018-07-19T02:19:53.043Z,98182.45
2018-07-19T02:22:21.728Z,98181.60
2018-07-19T02:24:50.221Z,98183.53
2018-07-19T02:27:18.689Z,98184.83
2018-07-19T02:29:47.099Z,98181.78
2018-07-19T02:32:15.543Z,98185.05
2018-07-19T02:34:44.065Z,98183.61
2018-07-19T02:37:12.576Z,98187.20
2018-07-19T02:39:41.104Z,98188.01
2018-07-19T02:42:09.615Z,98186.14
2018-07-19T02:44:38.568Z,98191.25
2018-07-19T02:47:06.998Z,98195.63
2018-07-19T02:49:35.767Z,98197.66
2018-07-19T02:52:04.330Z,98190.82
2018-07-19T02:54:32.919Z,98200.66
2018-07-19T02:57:01.547Z,98193.23
2018-07-19T02:59:30.031Z,98203.30
2018-07-19T03:01:58.478Z,98200.52
2018-07-19T03:04:26.978Z,98206.48
2018-07-19T03:06:55.420Z,98204.10
2018-07-19T03:09:24.219Z,98204.31
2018-07-19T03:11:52.716Z,98204.67
2018-07-19T03:14:21.625Z,98203.14
2018-07-19T03:16:50.058Z,98204.86
2018-07-19T03:19:18.520Z,98207.81
2018-07-19T03:21:47.014Z,98213.23
2018-07-19T03:24:15.484Z,98218.88
2018-07-19T03:26:43.924Z,98218.59
2018-07-19T03:29:12.390Z,98220.79
2018-07-19T03:31:41.009Z,98226.86
2018-07-19T03:34:09.464Z,98221.93
2018-07-19T03:36:37.915Z,98227.88
2018-07-19T03:39:08.996Z,98226.62
2018-07-19T03:41:37.432Z,98233.44
2018-07-19T03:44:06.119Z,98236.98
2018-07-19T03:46:34.819Z,98239.46
2018-07-19T03:49:03.377Z,98236.87
2018-07-19T03:51:31.846Z,98233.75
2018-07-19T03:54:00.324Z,98242.34
2018-07-19T03:56:28.803Z,98239.38
2018-07-19T03:58:57.315Z,98243.30
2018-07-19T04:01:25.759Z,98243.35
2018-07-19T04:03:54.267Z,98242.83
2018-07-19T04:06:22.705Z,98242.63
2018-07-19T04:08:51.188Z,98243.64
2018-07-19T04:11:19.672Z,98244.03
2018-07-19T04:13:48.337Z,98252.44
2018-07-19T04:16:16.811Z,98252.56
2018-07-19T04:18:45.288Z,98250.83
2018-07-19T04:21:13.782Z,98251.16
2018-07-19T04:23:42.600Z,98253.55
2018-07-19T04:26:11.303Z,98256.67
2018-07-19T04:28:39.795Z,98258.19
2018-07-19T04:31:08.272Z,98263.84
2018-07-19T04:33:36.770Z,98269.01
2018-07-19T04:36:05.272Z,98264.22
2018-07-19T04:38:33.763Z,98264.55
2018-07-19T04:41:02.219Z,98263.11
2018-07-19T04:43:30.658Z,98269.46
2018-07-19T04:45:59.139Z,98267.75
2018-07-19T04:48:28.390Z,98266.73
2018-07-19T04:50:56.964Z,98262.93
2018-07-19T04:53:25.410Z,98263.39
2018-07-19T04:55:53.878Z,98264.83
2018-07-19T04:58:23.481Z,98263.59
2018-07-19T05:00:52.812Z,98263.30
2018-07-19T05:03:21.396Z,98266.25
2018-07-19T05:05:49.888Z,98267.64
2018-07-19T05:08:18.765Z,98268.02
2018-07-19T05:10:47.200Z,98264.39
2018-07-19T05:13:15.716Z,98263.84
2018-07-19T05:15:44.788Z,98267.48
2018-07-19T05:18:13.262Z,98268.09
2018-07-19T05:20:41.777Z,98270.70
2018-07-19T05:23:10.507Z,98263.45
2018-07-19T05:25:38.949Z,98265.23
2018-07-19T05:28:07.413Z,98265.98
2018-07-19T05:30:35.955Z,98261.13
2018-07-19T05:33:04.483Z,98260.41
2018-07-19T05:35:33.208Z,98256.46
2018-07-19T05:38:01.708Z,98261.08
2018-07-19T05:40:30.216Z,98262.15
2018-07-19T05:42:58.696Z,98268.38
2018-07-19T05:45:27.537Z,98266.34
2018-07-19T05:47:55.995Z,98262.83
2018-07-19T05:50:24.543Z,98260.61
2018-07-19T05:52:53.039Z,98261.04
2018-07-19T05:55:22.044Z,98265.73
2018-07-19T05:57:50.609Z,98264.09
2018-07-19T06:00:19.103Z,98269.80
2018-07-19T06:02:47.587Z,98272.02
2018-07-19T06:05:16.093Z,98273.44
2018-07-19T06:07:44.844Z,98271.95
2018-07-19T06:10:13.344Z,98268.30
2018-07-19T06:12:41.828Z,98258.98
2018-07-19T06:15:10.296Z,98261.36
2018-07-19T06:17:38.727Z,98261.33
2018-07-19T06:20:08.718Z,98267.05
2018-07-19T06:22:37.237Z,98267.09
2018-07-19T06:25:06.126Z,98265.92
2018-07-19T06:27:34.859Z,98269.14
2018-07-19T06:30:03.421Z,98269.30
2018-07-19T06:32:31.927Z,98274.81
2018-07-19T06:35:00.651Z,98276.30
2018-07-19T06:37:29.120Z,98275.80
2018-07-19T06:39:57.667Z,98275.62
2018-07-19T06:42:26.243Z,98270.77
2018-07-19T06:44:54.736Z,98267.76
2018-07-19T06:47:23.205Z,98269.41
2018-07-19T06:49:51.683Z,98274.89
2018-07-19T06:52:20.139Z,98275.17
2018-07-19T06:54:48.631Z,98277.00
2018-07-19T06:57:17.094Z,98277.80
2018-07-19T06:59:45.555Z,98276.31
2018-07-19T07:02:14.336Z,98275.05
2018-07-19T07:04:43.052Z,98272.16
2018-07-19T07:07:11.531Z,98277.11
2018-07-19T07:09:39.987Z,98270.84
2018-07-19T07:22:05.719Z,98275.58
2018-07-19T07:24:34.222Z,98276.58
2018-07-19T07:27:02.671Z,98271.63
2018-07-19T07:29:31.140Z,98260.22
2018-07-19T07:31:59.696Z,98262.63
2018-07-19T07:34:28.512Z,98260.58
2018-07-19T07:36:56.977Z,98262.78
2018-07-19T07:39:25.501Z,98257.36
2018-07-19T07:41:54.017Z,98256.31
2018-07-19T07:44:22.968Z,98253.70
2018-07-19T07:46:51.471Z,98260.55
2018-07-19T07:49:19.930Z,98254.84
2018-07-19T07:51:48.369Z,98255.64
2018-07-19T07:54:16.938Z,98253.13
2018-07-19T07:56:45.534Z,98246.13
2018-07-19T07:59:14.056Z,98248.59
2018-07-19T08:01:42.499Z,98249.91
2018-07-19T08:04:11.004Z,98241.36
2018-07-19T08:06:39.440Z,98241.66
2018-07-19T08:09:09.368Z,98244.52
2018-07-19T08:11:38.186Z,98241.77
2018-07-19T08:14:06.763Z,98232.70
2018-07-19T08:16:35.203Z,98239.91
2018-07-19T08:19:03.739Z,98233.66
2018-07-19T08:21:32.343Z,98234.03
2018-07-19T08:24:00.810Z,98233.72
2018-07-19T08:26:29.312Z,98234.66
2018-07-19T08:28:57.825Z,98235.22
2018-07-19T08:31:26.320Z,98238.05
2018-07-19T08:33:54.771Z,98235.28
2018-07-19T08:36:23.223Z,98229.54
2018-07-19T08:38:51.743Z,98233.55
2018-07-19T08:41:20.191Z,98234.53
2018-07-19T08:43:48.651Z,98233.45
2018-07-19T08:46:17.097Z,98231.98
2018-07-19T08:48:45.622Z,98237.05
2018-07-19T08:51:14.052Z,98233.69
2018-07-19T08:53:42.582Z,98238.44
2018-07-19T08:56:11.030Z,98233.02
2018-07-19T08:58:39.583Z,98230.46
2018-07-19T09:01:08.096Z,98229.48
2018-07-19T09:03:36.553Z,98232.20
2018-07-19T09:06:05.060Z,98235.95
2018-07-19T09:08:33.564Z,98232.58
2018-07-19T09:11:02.011Z,98239.06
2018-07-19T09:13:30.664Z,98223.77
2018-07-19T09:15:59.175Z,98227.09
2018-07-19T09:18:27.804Z,98230.25
2018-07-19T09:20:56.311Z,98226.61
2018-07-19T09:23:24.770Z,98226.38
2018-07-19T09:25:53.374Z,98224.52
2018-07-19T09:28:22.319Z,98226.56
2018-07-19T09:30:50.781Z,98222.36
2018-07-19T09:36:18.528Z,98212.60
2018-07-19T09:38:47.003Z,98221.92
2018-07-19T09:41:15.441Z,98206.38
2018-07-19T09:43:43.860Z,98207.91
2018-07-19T09:46:12.336Z,98208.16
2018-07-19T09:48:40.777Z,98211.34
2018-07-19T09:51:09.247Z,98204.27
2018-07-19T09:53:37.815Z,98197.01
2018-07-19T09:56:06.331Z,98202.02
2018-07-19T09:58:34.818Z,98209.60
2018-07-19T10:01:08.627Z,98205.00
2018-07-19T10:03:37.149Z,98192.95
2018-07-19T10:06:05.625Z,98195.29
2018-07-19T10:08:34.100Z,98203.06
2018-07-19T10:11:02.799Z,98198.39
2018-07-19T10:13:31.304Z,98193.78
2018-07-19T10:16:00.075Z,98181.27
2018-07-19T10:18:28.723Z,98182.11
2018-07-19T10:20:57.223Z,98180.97
2018-07-19T10:23:26.059Z,98173.06
2018-07-19T10:25:55.621Z,98171.17
2018-07-19T10:28:24.076Z,98172.36
2018-07-19T10:30:52.557Z,98176.14
2018-07-19T10:33:21.322Z,98175.31
2018-07-19T10:35:49.999Z,98173.19
2018-07-19T10:38:18.503Z,98182.80
2018-07-19T10:40:47.056Z,98180.98
2018-07-19T10:43:15.533Z,98180.16
2018-07-19T10:45:44.315Z,98185.94
2018-07-19T10:48:12.787Z,98181.88
2018-07-19T10:50:41.399Z,98180.01
2018-07-19T10:53:09.839Z,98175.11
2018-07-19T10:55:38.241Z,98173.88
2018-07-19T10:58:06.790Z,98174.85
2018-07-19T11:00:35.220Z,98181.39
2018-07-19T11:03:03.923Z,98178.53
2018-07-19T11:05:32.384Z,98175.00
2018-07-19T11:08:00.782Z,98172.29
2018-07-19T11:10:29.244Z,98169.42
2018-07-19T11:12:57.847Z,98174.50
2018-07-19T11:15:26.648Z,98166.56
2018-07-19T11:17:55.636Z,98175.16
2018-07-19T11:20:24.923Z,98162.58
2018-07-19T11:22:53.414Z,98168.27
2018-07-19T11:25:21.896Z,98168.25
2018-07-19T11:27:50.314Z,98164.15
2018-07-19T11:30:18.720Z,98171.23
2018-07-19T11:32:47.232Z,98163.14
2018-07-19T11:35:15.662Z,98156.84
2018-07-19T11:37:44.342Z,98159.20
2018-07-19T11:40:12.745Z,98160.38
2018-07-19T11:42:41.155Z,98161.57
2018-07-19T11:45:09.604Z,98154.73
2018-07-19T11:47:38.039Z,98158.19
2018-07-19T11:50:06.788Z,98163.10
2018-07-19T11:52:35.211Z,98157.56
2018-07-19T11:55:03.914Z,98150.14
2018-07-19T11:57:32.310Z,98158.70
2018-07-19T12:00:00.743Z,98150.17
2018-07-19T12:02:29.237Z,98146.70
2018-07-19T12:04:58.057Z,98140.37
2018-07-19T12:07:26.532Z,98147.67
2018-07-19T12:09:54.927Z,98166.33
2018-07-19T12:12:23.362Z,98160.46
2018-07-19T12:14:51.836Z,98142.98
2018-07-19T12:17:20.295Z,98139.45
2018-07-19T12:19:48.721Z,98138.33
2018-07-19T12:22:17.292Z,98135.92
2018-07-19T12:24:46.314Z,98153.42
2018-07-19T12:27:15.391Z,98144.61
2018-07-19T12:29:44.019Z,98140.99
2018-07-19T12:32:12.474Z,98141.53
2018-07-19T12:34:40.874Z,98145.50
2018-07-19T12:37:09.324Z,98135.44
2018-07-19T12:39:37.755Z,98136.70
2018-07-19T12:42:06.184Z,98126.39
2018-07-19T12:44:34.641Z,98146.25
2018-07-19T12:47:03.364Z,98134.20
2018-07-19T12:49:31.846Z,98133.49
2018-07-19T12:52:00.372Z,98139.78
2018-07-19T12:54:28.806Z,98135.59
2018-07-19T12:56:57.459Z,98138.03
2018-07-19T12:59:25.897Z,98136.81
2018-07-19T13:01:54.749Z,98135.70
2018-07-19T13:04:23.496Z,98136.71
2018-07-19T13:06:51.897Z,98126.72
2018-07-19T13:09:20.574Z,98134.75
2018-07-19T13:11:49.006Z,98129.80
2018-07-19T13:14:17.501Z,98117.63
2018-07-19T13:16:46.092Z,98121.36
2018-07-19T13:19:14.574Z,98126.33
2018-07-19T13:21:43.025Z,98111.14
2018-07-19T13:24:11.542Z,98141.72
2018-07-19T13:26:40.040Z,98126.25
2018-07-19T13:29:08.434Z,98118.55
2018-07-19T13:31:36.951Z,98121.18
2018-07-19T13:34:05.915Z,98120.55
2018-07-19T13:36:34.631Z,98118.22
2018-07-19T13:39:03.511Z,98124.00
2018-07-19T13:41:31.974Z,98112.24
2018-07-19T13:44:00.683Z,98121.58
2018-07-19T13:46:29.105Z,98129.70
2018-07-19T13:48:57.525Z,98121.91
2018-07-19T13:51:26.027Z,98126.86
2018-07-19T13:54:18.721Z,98116.52
2018-07-19T13:56:47.408Z,98118.09
2018-07-19T13:59:16.698Z,98107.45
2018-07-19T14:01:45.222Z,98103.52
2018-07-19T14:04:13.776Z,98103.14
2018-07-19T14:06:42.232Z,98092.77
2018-07-19T14:09:13.657Z,98092.97
2018-07-19T14:11:42.308Z,98106.62
2018-07-19T14:14:11.307Z,98092.38
2018-07-19T14:16:39.758Z,98095.93
2018-07-19T14:19:08.479Z,98100.56
2018-07-19T14:21:36.939Z,98091.88
2018-07-19T14:24:05.521Z,98082.45
2018-07-19T14:26:33.957Z,98093.75
2018-07-19T14:29:02.375Z,98087.37
2018-07-19T14:31:30.847Z,98079.64
2018-07-19T14:33:59.274Z,98086.81
2018-07-19T14:36:27.730Z,98098.13
2018-07-19T14:38:56.173Z,98076.88
2018-07-19T14:41:24.762Z,98078.55
2018-07-19T14:43:53.211Z,98072.94
2018-07-19T14:46:22.264Z,98074.71
2018-07-19T14:48:51.103Z,98068.91
2018-07-19T14:51:19.563Z,98062.82
2018-07-19T14:53:47.990Z,98065.58
2018-07-19T14:56:16.564Z,98067.55
2018-07-19T14:58:44.983Z,98074.16
2018-07-19T15:01:13.855Z,98067.27
2018-07-19T15:03:42.316Z,98064.59
2018-07-19T15:06:10.771Z,98060.16
2018-07-19T15:08:39.208Z,98057.84
2018-07-19T15:11:07.699Z,98059.83
2018-07-19T15:13:36.189Z,98053.00
2018-07-19T15:16:04.643Z,98058.67
2018-07-19T15:18:33.071Z,98059.25
2018-07-19T15:21:01.526Z,98054.17
2018-07-19T15:23:29.954Z,98052.05
2018-07-19T15:25:58.780Z,98045.33
2018-07-19T15:28:27.226Z,98037.13
2018-07-19T15:30:55.825Z,98043.83
2018-07-19T15:33:24.647Z,98039.66
2018-07-19T15:35:53.099Z,98045.23
2018-07-19T15:38:21.547Z,98045.36
2018-07-19T15:40:49.987Z,98048.14
2018-07-19T15:43:18.484Z,98045.27
2018-07-19T15:45:46.932Z,98037.77
2018-07-19T15:48:15.385Z,98040.80
2018-07-19T15:50:44.096Z,98033.11
2018-07-19T15:53:12.563Z,98040.69
2018-07-19T15:55:41.009Z,98040.67
2018-07-19T16:00:52.385Z,98048.38
2018-07-19T16:03:20.859Z,98030.95
2018-07-19T16:05:49.322Z,98030.58
2018-07-19T16:08:17.826Z,98034.70
2018-07-19T16:10:46.263Z,98026.17
2018-07-19T16:13:14.928Z,98026.52
2018-07-19T16:15:43.388Z,98029.16
2018-07-19T16:18:11.872Z,98027.54
2018-07-19T16:20:40.413Z,98037.23
2018-07-19T16:23:08.830Z,98023.19
2018-07-19T16:25:37.235Z,98023.47
2018-07-19T16:28:05.793Z,98025.09
2018-07-19T16:30:34.455Z,98018.34
2018-07-19T16:33:03.175Z,98014.81
2018-07-19T16:35:31.584Z,98038.67
2018-07-19T16:38:00.036Z,98016.06
2018-07-19T16:40:28.458Z,98027.83
2018-07-19T16:42:56.962Z,98016.39
2018-07-19T16:45:25.679Z,98016.09
2018-07-19T16:47:54.392Z,98016.97
2018-07-19T16:50:22.824Z,98020.35
2018-07-19T16:52:51.264Z,98014.02
2018-07-19T16:55:19.762Z,98056.61
2018-07-19T16:57:48.513Z,98223.72
2018-07-19T17:00:16.915Z,98156.30
2018-07-19T17:02:45.943Z,98106.66
2018-07-19T17:05:14.452Z,98074.95
2018-07-19T17:07:42.876Z,98051.44
2018-07-19T17:10:11.261Z,98030.80
2018-07-19T17:12:39.701Z,98031.66
2018-07-19T17:15:08.152Z,98024.84
2018-07-19T17:17:37.018Z,98029.23
2018-07-19T17:20:05.784Z,98022.27
2018-07-19T17:22:34.246Z,98026.98
2018-07-19T17:25:03.629Z,98020.00
2018-07-19T17:27:32.137Z,98029.69
2018-07-19T17:30:00.661Z,98018.67
2018-07-19T17:32:29.147Z,98018.57
2018-07-19T17:34:57.759Z,98013.03
2018-07-19T17:37:26.274Z,98019.27
2018-07-19T17:39:55.012Z,98015.45
2018-07-19T17:42:23.692Z,98022.39
2018-07-19T17:44:52.118Z,98023.44
2018-07-19T17:47:21.079Z,98016.78
2018-07-19T17:49:49.581Z,98014.55
2018-07-19T17:52:18.003Z,98012.65
2018-07-19T17:54:46.432Z,98013.88
2018-07-19T17:57:14.909Z,98019.68
2018-07-19T17:59:43.705Z,98015.84
2018-07-19T18:02:12.140Z,98021.24
2018-07-19T18:04:40.596Z,98020.66
2018-07-19T18:07:09.058Z,98017.69
2018-07-19T18:09:37.474Z,98017.30
2018-07-19T18:12:05.961Z,98017.35
2018-07-19T18:14:34.447Z,98008.97
2018-07-19T18:17:02.846Z,98010.77
2018-07-19T18:19:31.323Z,98012.46
2018-07-19T18:21:59.757Z,98011.37
2018-07-19T18:24:28.225Z,98015.12
2018-07-19T18:26:56.679Z,98013.77
2018-07-19T18:29:25.100Z,98015.53
2018-07-19T18:31:53.748Z,98017.70
2018-07-19T18:34:22.318Z,98022.66
2018-07-19T18:36:50.727Z,98013.05
2018-07-19T18:39:19.168Z,98015.20
2018-07-19T18:41:47.626Z,98022.89
2018-07-19T18:44:16.093Z,98024.78
2018-07-19T18:46:44.625Z,98028.59
2018-07-19T18:49:13.971Z,98022.44
2018-07-19T18:51:42.455Z,98028.41
2018-07-19T18:54:11.195Z,98029.38
2018-07-19T18:56:39.678Z,98032.91
2018-07-19T18:59:08.150Z,98037.77
2018-07-19T19:01:36.576Z,98037.36
2018-07-19T19:04:05.181Z,98038.39
2018-07-19T19:06:33.722Z,98039.49
2018-07-19T19:09:02.293Z,98045.45
2018-07-19T19:11:30.775Z,98041.17
2018-07-19T19:13:59.299Z,98049.76
2018-07-19T19:16:27.864Z,98049.18
2018-07-19T19:18:56.337Z,98051.69
2018-07-19T19:21:25.082Z,98051.40
2018-07-19T19:23:53.756Z,98059.53
2018-07-19T19:26:22.207Z,98056.66
2018-07-19T19:28:50.664Z,98064.72
2018-07-19T19:31:19.285Z,98063.10
2018-07-19T19:33:47.733Z,98066.16
2018-07-19T19:36:16.179Z,98071.38
2018-07-19T19:38:44.874Z,98069.53
2018-07-19T19:41:13.537Z,98068.18
2018-07-19T19:43:42.043Z,98071.83
2018-07-19T19:46:10.771Z,98068.27
2018-07-19T19:48:39.251Z,98071.54
2018-07-19T19:51:08.079Z,98077.13
2018-07-19T19:53:37.042Z,98069.63
2018-07-19T19:56:05.539Z,98072.94
2018-07-19T19:58:34.509Z,98070.13
2018-07-19T20:01:02.976Z,98071.27
2018-07-19T20:03:31.383Z,98078.06
2018-07-19T20:05:59.944Z,98076.97
2018-07-19T20:08:28.497Z,98076.27
2018-07-19T20:10:56.963Z,98082.19
2018-07-19T20:13:25.435Z,98085.73
2018-07-19T20:15:53.836Z,98080.81
2018-07-19T20:18:22.321Z,98083.95
2018-07-19T20:20:50.750Z,98083.66
2018-07-19T20:23:19.386Z,98080.30
2018-07-19T20:25:47.800Z,98078.03
2018-07-19T20:28:16.733Z,98081.11
2018-07-19T20:30:45.548Z,98076.36
2018-07-19T20:33:14.270Z,98077.38
2018-07-19T20:35:42.727Z,98078.84
2018-07-19T20:38:11.260Z,98082.28
2018-07-19T20:40:40.063Z,98084.62
2018-07-19T20:43:08.931Z,98079.45
2018-07-19T20:45:37.358Z,98081.14
2018-07-19T20:48:05.827Z,98084.20
2018-07-19T20:50:34.645Z,98081.47
2018-07-19T20:53:03.244Z,98086.55
2018-07-19T20:55:31.736Z,98079.87
2018-07-19T20:58:00.245Z,98082.15
2018-07-19T21:00:29.229Z,98082.72
2018-07-19T21:02:57.671Z,98088.55
2018-07-19T21:05:26.356Z,98086.93
2018-07-19T21:07:55.069Z,98087.30
2018-07-19T21:10:23.636Z,98096.33
2018-07-19T21:12:52.587Z,98090.36
2018-07-19T21:15:21.012Z,98081.93
2018-07-19T21:17:49.954Z,98096.89
2018-07-19T21:20:18.489Z,98093.46
2018-07-19T21:22:46.927Z,98091.74
2018-07-19T21:25:15.383Z,98088.98
2018-07-19T21:27:43.866Z,98094.21
2018-07-19T21:30:12.635Z,98093.21
2018-07-19T21:32:41.051Z,98098.27
2018-07-19T21:35:09.514Z,98098.23
2018-07-19T21:37:38.150Z,98097.90
2018-07-19T21:40:06.722Z,98097.92
2018-07-19T21:42:35.435Z,98101.09
2018-07-19T21:45:04.010Z,98104.47
2018-07-19T21:47:32.878Z,98105.27
2018-07-19T21:50:01.321Z,98102.27
2018-07-19T21:52:29.755Z,98107.12
2018-07-19T21:54:58.231Z,98109.95
2018-07-19T21:57:26.685Z,98107.61
2018-07-19T21:59:55.375Z,98109.63
2018-07-19T22:02:23.814Z,98113.78
2018-07-19T22:04:52.232Z,98117.31
2018-07-19T22:07:20.709Z,98109.79
2018-07-19T22:09:49.383Z,98113.95
2018-07-19T22:12:17.835Z,98116.30
2018-07-19T22:14:46.272Z,98130.28
2018-07-19T22:17:14.755Z,98130.23
2018-07-19T22:19:43.159Z,98131.90
2018-07-19T22:22:11.589Z,98126.93
2018-07-19T22:24:40.107Z,98128.53
2018-07-19T22:27:08.538Z,98129.84
2018-07-19T22:29:37.081Z,98132.67
2018-07-19T22:32:05.838Z,98133.52
2018-07-19T22:34:34.333Z,98133.83
2018-07-19T22:37:02.782Z,98132.47
2018-07-19T22:39:31.223Z,98134.47
2018-07-19T22:41:59.712Z,98130.59
2018-07-19T22:44:28.239Z,98133.43
2018-07-19T22:46:56.721Z,98135.23
2018-07-19T22:49:27.931Z,98133.92
2018-07-19T22:51:56.376Z,98135.09
2018-07-19T22:54:24.830Z,98137.38
2018-07-19T22:56:53.315Z,98138.64
2018-07-19T22:59:22.343Z,98138.56
2018-07-19T23:01:50.775Z,98140.22
2018-07-19T23:04:19.272Z,98142.34
2018-07-19T23:06:47.751Z,98147.81
2018-07-19T23:09:16.235Z,98148.48
2018-07-19T23:11:44.679Z,98146.75
2018-07-19T23:14:13.207Z,98148.13
2018-07-19T23:16:41.651Z,98149.77
2018-07-19T23:19:10.138Z,98154.98
2018-07-19T23:21:38.582Z,98149.09
2018-07-19T23:24:07.075Z,98159.19
2018-07-19T23:26:35.639Z,98157.75
2018-07-19T23:29:04.111Z,98162.95
2018-07-19T23:31:32.663Z,98163.55
2018-07-19T23:34:01.190Z,98159.50
2018-07-19T23:36:33.795Z,98156.87
2018-07-19T23:39:09.329Z,98160.96
2018-07-19T23:41:44.771Z,98166.45
2018-07-19T23:44:20.575Z,98159.95
2018-07-19T23:46:53.923Z,98161.67
2018-07-19T23:49:22.442Z,98169.58
2018-07-19T23:51:51.095Z,98164.54
2018-07-19T23:54:19.561Z,98171.05
2018-07-19T23:56:48.095Z,98175.16
2018-07-19T23:59:16.531Z,98171.95
